Time;durP1;ratioP1;P1;durP2;ratioP2;P2;SDS_P1;SDS_P2;PMS_P1;PMS_P2;Temp;Humidity;BMP_temperature;BMP_pressure;BME280_temperature;BME280_humidity;BME280_pressure;Samples;Min_cycle;Max_cycle;Signal;HPM_P1;HPM_P2
2021/01/07 00:00:21;;;;;;;2.10;0.83;;;2.30;88.80;;;;;;5021093;28;20033;-92
2021/01/07 00:02:47;;;;;;;4.43;1.70;;;2.30;88.90;;;;;;5023281;28;20041;-92
2021/01/07 00:05:41;;;;;;;;;;;;;;;;;;;;;
2021/01/07 00:08:08;;;;;;;2.27;1.33;;;2.20;88.80;;;;;;5004396;28;20045;-92
2021/01/07 00:10:35;;;;;;;8.53;2.23;;;2.20;88.90;;;;;;4988771;28;20049;-93
2021/01/07 00:13:01;;;;;;;8.53;2.40;;;2.20;88.90;;;;;;5002276;28;20034;-92
2021/01/07 00:15:27;;;;;;;3.47;2.20;;;2.20;89.00;;;;;;5022310;28;20032;-92
2021/01/07 00:17:54;;;;;;;2.63;1.50;;;2.20;89.00;;;;;;5023751;28;20029;-93
2021/01/07 00:20:20;;;;;;;2.40;1.40;;;2.20;89.00;;;;;;5022762;28;20033;-92
2021/01/07 00:22:46;;;;;;;6.57;1.87;;;2.20;89.00;;;;;;5005418;28;20048;-92
2021/01/07 00:25:13;;;;;;;6.27;1.70;;;2.20;88.90;;;;;;5022881;28;20033;-92
2021/01/07 00:27:39;;;;;;;5.30;2.23;;;2.10;88.90;;;;;;5002840;28;20050;-92
2021/01/07 00:30:06;;;;;;;9.30;2.00;;;2.10;88.90;;;;;;5002848;28;20038;-92
2021/01/07 00:32:33;;;;;;;2.80;1.63;;;2.00;89.10;;;;;;5020102;28;20034;-93
2021/01/07 00:34:59;;;;;;;2.97;1.23;;;2.00;89.20;;;;;;5019355;28;20321;-92
2021/01/07 00:37:26;;;;;;;9.03;1.70;;;1.90;89.10;;;;;;5018977;28;20122;-92
2021/01/07 00:39:52;;;;;;;2.27;1.40;;;1.90;89.30;;;;;;5019636;28;20041;-91
2021/01/07 00:42:18;;;;;;;6.97;2.43;;;1.90;89.40;;;;;;5020095;28;20034;-93
2021/01/07 00:44:45;;;;;;;3.70;1.10;;;1.80;89.30;;;;;;5018976;28;20038;-92
2021/01/07 00:47:12;;;;;;;4.03;1.67;;;1.80;89.50;;;;;;5004420;28;20044;-93
2021/01/07 00:49:38;;;;;;;8.33;2.43;;;1.70;89.70;;;;;;5021171;28;20037;-93
2021/01/07 00:52:05;;;;;;;2.10;1.30;;;1.70;89.80;;;;;;5021820;28;20033;-94
2021/01/07 00:54:31;;;;;;;1.57;0.93;;;1.60;89.80;;;;;;5019521;28;20041;-93
2021/01/07 00:56:57;;;;;;;8.70;2.10;;;1.60;89.80;;;;;;5020161;28;20034;-92
2021/01/07 00:59:24;;;;;;;3.27;1.70;;;1.60;89.80;;;;;;5003064;28;20034;-93
2021/01/07 01:01:50;;;;;;;11.53;2.63;;;1.60;89.90;;;;;;5024329;28;20038;-92
2021/01/07 01:04:16;;;;;;;3.80;1.60;;;1.50;89.90;;;;;;5021221;28;20037;-93
2021/01/07 01:06:43;;;;;;;4.40;1.53;;;1.50;90.00;;;;;;5005269;28;20049;-93
2021/01/07 01:09:14;;;;;;;4.70;1.90;;;1.50;90.00;;;;;;5021601;28;20038;-93
2021/01/07 01:11:43;;;;;;;1.00;0.63;;;1.50;90.00;;;;;;5021189;28;20045;-92
2021/01/07 01:14:12;;;;;;;4.10;1.27;;;1.50;89.90;;;;;;5020594;28;20052;-93
2021/01/07 01:16:38;;;;;;;1.00;0.67;;;1.50;89.90;;;;;;5019904;28;20037;-92
2021/01/07 01:19:05;;;;;;;2.53;1.67;;;1.40;89.80;;;;;;5020757;28;20032;-94
2021/01/07 01:21:32;;;;;;;2.50;1.40;;;1.40;89.90;;;;;;5003686;28;20553;-92
2021/01/07 01:23:59;;;;;;;3.60;2.00;;;1.40;90.00;;;;;;5003874;28;20038;-91
2021/01/07 01:26:25;;;;;;;4.03;0.80;;;1.40;90.00;;;;;;5020548;28;20041;-93
2021/01/07 01:28:52;;;;;;;3.13;1.73;;;1.30;89.90;;;;;;5020956;28;20060;-92
2021/01/07 01:31:18;;;;;;;3.43;1.30;;;1.30;90.00;;;;;;5020961;28;20037;-91
2021/01/07 01:33:44;;;;;;;10.53;1.80;;;1.30;90.00;;;;;;5003951;28;20040;-91
2021/01/07 01:36:11;;;;;;;6.50;2.30;;;1.30;90.30;;;;;;5005903;28;20425;-93
2021/01/07 01:38:37;;;;;;;2.23;1.57;;;1.20;90.00;;;;;;5024541;28;20050;-93
2021/01/07 01:41:04;;;;;;;6.17;2.37;;;1.20;90.00;;;;;;5025662;28;20033;-91
2021/01/07 01:43:32;;;;;;;3.50;1.67;;;1.20;90.00;;;;;;5024845;28;20351;-92
2021/01/07 01:45:58;;;;;;;4.17;1.60;;;1.20;90.00;;;;;;5006482;28;20344;-92
2021/01/07 01:48:25;;;;;;;7.63;3.07;;;1.20;90.00;;;;;;5023684;28;20033;-93
2021/01/07 01:50:52;;;;;;;4.93;0.83;;;1.10;90.00;;;;;;5023551;28;20053;-92
2021/01/07 01:53:20;;;;;;;2.50;1.77;;;1.10;90.00;;;;;;5023151;28;20344;-92
2021/01/07 01:55:48;;;;;;;2.67;1.67;;;1.10;90.00;;;;;;5021657;28;20048;-93
2021/01/07 01:58:14;;;;;;;1.67;1.17;;;1.10;89.90;;;;;;5022805;28;20447;-92
2021/01/07 02:00:40;;;;;;;2.93;1.47;;;1.10;89.90;;;;;;5023236;28;20440;-93
2021/01/07 02:03:08;;;;;;;17.93;2.30;;;1.10;89.90;;;;;;5024288;28;20029;-93
2021/01/07 02:05:35;;;;;;;3.97;1.97;;;1.10;89.90;;;;;;5023389;28;20041;-91
2021/01/07 02:08:05;;;;;;;5.40;1.40;;;1.10;89.90;;;;;;5003233;28;20041;-92
2021/01/07 02:10:31;;;;;;;1.80;1.40;;;1.00;89.90;;;;;;5022644;28;20041;-92
2021/01/07 02:13:00;;;;;;;3.27;2.10;;;1.00;90.00;;;;;;5022713;28;20032;-92
2021/01/07 02:15:26;;;;;;;6.87;1.10;;;0.90;90.00;;;;;;5020673;28;20105;-92
2021/01/07 02:17:55;;;;;;;1.63;0.70;;;0.90;90.00;;;;;;5023389;28;20297;-91
2021/01/07 02:20:23;;;;;;;4.73;2.40;;;0.90;90.00;;;;;;5022388;28;20025;-91
2021/01/07 02:22:54;;;;;;;3.93;1.30;;;0.90;90.00;;;;;;5005870;28;20037;-92
2021/01/07 02:25:21;;;;;;;1.42;1.23;;;0.90;90.00;;;;;;5021267;28;20045;-92
2021/01/07 02:27:48;;;;;;;2.70;1.50;;;0.90;90.00;;;;;;5021463;28;20036;-90
2021/01/07 02:30:14;;;;;;;2.63;1.50;;;0.90;90.00;;;;;;5020197;28;20037;-91
2021/01/07 02:32:41;;;;;;;3.17;0.90;;;0.80;89.90;;;;;;5020785;28;20044;-92
2021/01/07 02:35:08;;;;;;;1.30;0.87;;;0.80;90.00;;;;;;5021619;28;20033;-92
2021/01/07 02:37:36;;;;;;;1.90;0.83;;;0.80;90.00;;;;;;5021421;28;20709;-92
2021/01/07 02:40:06;;;;;;;4.80;2.00;;;0.90;90.00;;;;;;5021634;28;20026;-92
2021/01/07 02:42:33;;;;;;;2.35;1.67;;;0.90;89.90;;;;;;5021298;28;20048;-93
2021/01/07 02:44:59;;;;;;;2.53;1.40;;;0.90;89.80;;;;;;5021889;28;20025;-92
2021/01/07 02:47:27;;;;;;;3.80;1.57;;;1.00;89.70;;;;;;5020783;28;20345;-91
2021/01/07 02:49:53;;;;;;;7.63;1.03;;;1.00;89.40;;;;;;4976848;28;20058;-91
2021/01/07 02:52:20;;;;;;;4.37;1.13;;;1.00;89.30;;;;;;5007882;28;20344;-92
2021/01/07 02:54:46;;;;;;;2.70;1.43;;;1.10;89.30;;;;;;5021691;28;20025;-92
2021/01/07 02:57:12;;;;;;;3.30;1.13;;;1.10;89.20;;;;;;4987536;28;20041;-92
2021/01/07 02:59:39;;;;;;;2.03;0.90;;;1.20;89.10;;;;;;5004903;28;20432;-93
2021/01/07 03:02:57;;;;;;;6.43;1.63;;;1.20;88.90;;;;;;5007341;28;20025;-92
2021/01/07 03:05:24;;;;;;;1.50;0.30;;;1.20;88.80;;;;;;5017298;28;20045;-94
2021/01/07 03:07:50;;;;;;;4.83;1.43;;;1.20;88.70;;;;;;5024192;28;20056;-92
2021/01/07 03:10:17;;;;;;;1.30;0.77;;;1.20;88.50;;;;;;5023706;28;20045;-92
2021/01/07 03:12:58;;;;;;;0.93;0.33;;;1.20;88.60;;;;;;5007786;28;20037;-94
2021/01/07 03:15:25;;;;;;;0.83;0.53;;;1.20;88.60;;;;;;4985979;28;20029;-92
2021/01/07 03:17:51;;;;;;;3.23;1.50;;;1.20;88.60;;;;;;5009756;28;20053;-93
2021/01/07 03:20:18;;;;;;;3.70;1.83;;;1.20;88.70;;;;;;5016432;28;20050;-92
2021/01/07 03:22:44;;;;;;;1.37;0.87;;;1.20;88.60;;;;;;5000605;28;20420;-92
2021/01/07 03:25:11;;;;;;;3.00;1.20;;;1.30;88.50;;;;;;4984056;28;20034;-91
2021/01/07 03:27:38;;;;;;;1.70;1.23;;;1.40;88.30;;;;;;5000469;28;20033;-92
2021/01/07 03:30:06;;;;;;;4.93;1.83;;;1.40;88.20;;;;;;4999539;28;20026;-93
2021/01/07 03:32:44;;;;;;;2.93;1.03;;;1.40;88.10;;;;;;4983515;28;20046;-93
2021/01/07 03:35:52;;;;;;;3.63;1.73;;;1.50;88.10;;;;;;4988908;28;20033;-93
2021/01/07 03:38:18;;;;;;;1.37;1.07;;;1.50;87.80;;;;;;4989044;28;20054;-93
2021/01/07 03:40:45;;;;;;;5.63;1.10;;;1.60;87.70;;;;;;4980898;28;20041;-93
2021/01/07 03:43:11;;;;;;;2.30;1.00;;;1.60;87.60;;;;;;4996692;28;20087;-93
2021/01/07 03:45:38;;;;;;;3.20;1.40;;;1.70;87.60;;;;;;4979779;28;20034;-92
2021/01/07 03:48:05;;;;;;;1.17;1.00;;;1.70;87.50;;;;;;4996906;28;20030;-93
2021/01/07 03:50:31;;;;;;;1.17;1.00;;;1.70;87.50;;;;;;4979605;28;20046;-92
2021/01/07 03:52:57;;;;;;;0.97;0.87;;;1.70;87.50;;;;;;4996593;28;20030;-92
2021/01/07 03:55:24;;;;;;;0.37;0.20;;;1.70;87.40;;;;;;4964495;28;20031;-93
2021/01/07 03:57:50;;;;;;;3.73;0.83;;;1.70;87.50;;;;;;4996609;28;20026;-92
2021/01/07 04:00:17;;;;;;;4.77;1.20;;;1.70;87.50;;;;;;4964972;28;20046;-93
2021/01/07 04:02:43;;;;;;;3.23;1.93;;;1.70;87.40;;;;;;4999460;28;20038;-92
2021/01/07 04:05:10;;;;;;;6.43;1.13;;;1.80;87.50;;;;;;4999419;28;20029;-93
2021/01/07 04:07:37;;;;;;;1.47;0.77;;;1.80;87.50;;;;;;5014950;28;20045;-92
2021/01/07 04:10:07;;;;;;;4.00;1.17;;;1.80;87.40;;;;;;4999212;28;20042;-92
2021/01/07 04:12:34;;;;;;;6.57;2.17;;;1.80;87.30;;;;;;5015776;28;20417;-92
2021/01/07 04:15:04;;;;;;;1.80;0.97;;;1.90;87.30;;;;;;5015910;28;20044;-92
2021/01/07 04:17:31;;;;;;;0.93;0.67;;;1.90;87.30;;;;;;4998056;28;20429;-93
2021/01/07 04:19:57;;;;;;;5.43;1.90;;;1.90;87.30;;;;;;4986013;28;20357;-92
2021/01/07 04:22:25;;;;;;;1.67;1.20;;;1.90;87.20;;;;;;5015667;28;20034;-92
2021/01/07 04:24:51;;;;;;;2.80;1.37;;;2.00;87.30;;;;;;5015808;28;20033;-92
2021/01/07 04:27:17;;;;;;;6.80;1.27;;;2.00;87.20;;;;;;4999292;28;20564;-93
2021/01/07 04:29:44;;;;;;;7.63;1.50;;;2.00;87.20;;;;;;4998759;28;20041;-92
2021/01/07 04:32:11;;;;;;;6.57;2.03;;;2.00;87.20;;;;;;4983771;28;20089;-92
2021/01/07 04:34:37;;;;;;;8.40;1.70;;;2.00;87.20;;;;;;4963061;28;20042;-92
2021/01/07 04:37:04;;;;;;;4.67;1.60;;;2.00;87.20;;;;;;5003287;28;20042;-92
2021/01/07 04:39:30;;;;;;;4.83;2.10;;;2.00;87.20;;;;;;5002012;28;20117;-91
2021/01/07 04:41:57;;;;;;;7.50;1.47;;;2.00;87.40;;;;;;5017817;28;20413;-92
2021/01/07 04:44:23;;;;;;;6.50;1.93;;;2.00;87.40;;;;;;5001651;28;20060;-92
2021/01/07 04:46:49;;;;;;;3.70;1.63;;;2.00;87.40;;;;;;5001119;28;20044;-93
2021/01/07 04:49:16;;;;;;;1.37;0.60;;;2.00;87.40;;;;;;5018156;28;20044;-93
2021/01/07 04:51:42;;;;;;;3.07;1.37;;;2.00;87.40;;;;;;5018210;28;20033;-92
2021/01/07 04:54:09;;;;;;;2.63;1.13;;;2.00;87.40;;;;;;5018878;28;20029;-91
2021/01/07 04:56:35;;;;;;;4.33;1.73;;;2.00;87.40;;;;;;5018626;28;20041;-90
2021/01/07 04:59:01;;;;;;;4.80;1.03;;;2.00;87.40;;;;;;5017604;28;20045;-91
2021/01/07 05:01:28;;;;;;;5.73;1.63;;;2.00;87.40;;;;;;5017531;28;20041;-91
2021/01/07 05:03:55;;;;;;;0.33;0.23;;;2.00;87.40;;;;;;5035639;28;20061;-92
2021/01/07 05:06:25;;;;;;;6.23;1.53;;;1.90;87.30;;;;;;5000971;28;20041;-89
2021/01/07 05:09:01;;;;;;;3.00;1.80;;;1.90;87.50;;;;;;5001441;28;20033;-91
2021/01/07 05:11:29;;;;;;;8.53;2.37;;;1.90;87.60;;;;;;5020513;28;20021;-91
2021/01/07 05:14:02;;;;;;;7.10;1.40;;;1.90;87.70;;;;;;5021911;28;20033;-91
2021/01/07 05:16:29;;;;;;;7.37;1.67;;;1.90;87.50;;;;;;5020564;28;20045;-90
2021/01/07 05:18:55;;;;;;;7.20;1.83;;;2.00;87.40;;;;;;5004723;28;20042;-92
2021/01/07 05:21:22;;;;;;;1.90;0.83;;;2.00;87.40;;;;;;5021668;28;20034;-93
2021/01/07 05:23:49;;;;;;;4.63;1.70;;;2.00;87.30;;;;;;5004867;28;20038;-92
2021/01/07 05:26:21;;;;;;;7.73;1.77;;;2.10;87.30;;;;;;5004805;28;20447;-91
2021/01/07 05:28:49;;;;;;;2.20;1.30;;;2.10;87.30;;;;;;5019795;28;20041;-93
2021/01/07 05:31:20;;;;;;;1.33;0.63;;;2.10;87.10;;;;;;5021120;28;20033;-89
2021/01/07 05:33:46;;;;;;;2.45;0.85;;;2.20;87.10;;;;;;5025095;28;20029;-93
2021/01/07 05:36:20;;;;;;;1.20;0.80;;;2.20;87.00;;;;;;5019506;28;20348;-92
2021/01/07 05:38:48;;;;;;;3.27;1.67;;;2.20;87.00;;;;;;5021684;28;20028;-93
2021/01/07 05:41:14;;;;;;;6.73;2.03;;;2.20;87.00;;;;;;5021058;28;20037;-93
2021/01/07 05:43:42;;;;;;;5.23;1.97;;;2.20;86.90;;;;;;5004450;28;20048;-91
2021/01/07 05:46:08;;;;;;;1.93;0.87;;;2.20;86.90;;;;;;5003818;28;20337;-91
2021/01/07 05:48:35;;;;;;;1.13;1.00;;;2.20;86.90;;;;;;5020872;28;20038;-91
2021/01/07 05:51:03;;;;;;;1.80;1.10;;;2.30;87.00;;;;;;5021276;28;20034;-93
2021/01/07 05:53:33;;;;;;;9.47;1.27;;;2.30;87.00;;;;;;5017091;28;20042;-92
2021/01/07 05:55:59;;;;;;;3.40;1.43;;;2.30;87.00;;;;;;5003861;28;20044;-91
2021/01/07 05:58:26;;;;;;;1.93;1.20;;;2.30;86.90;;;;;;5020495;28;20306;-91
2021/01/07 06:00:54;;;;;;;2.90;1.70;;;2.30;86.90;;;;;;5020578;28;20033;-90
2021/01/07 06:03:23;;;;;;;5.97;3.50;;;2.30;86.80;;;;;;5010794;28;20528;-91
2021/01/07 06:05:51;;;;;;;6.83;1.90;;;2.30;86.80;;;;;;5004748;28;20046;-90
2021/01/07 06:08:17;;;;;;;1.40;0.70;;;2.40;86.90;;;;;;5037059;28;20037;-90
2021/01/07 06:10:47;;;;;;;2.27;1.37;;;2.30;86.80;;;;;;5024802;28;20557;-91
2021/01/07 06:13:13;;;;;;;14.57;2.77;;;2.30;87.00;;;;;;5004800;28;20034;-89
2021/01/07 06:15:40;;;;;;;5.50;1.93;;;2.30;87.00;;;;;;5018735;28;20038;-90
2021/01/07 06:18:07;;;;;;;17.73;5.53;;;2.30;87.00;;;;;;5002920;28;20037;-92
2021/01/07 06:20:33;;;;;;;23.87;5.43;;;2.30;87.00;;;;;;5019640;28;20310;-90
2021/01/07 06:23:00;;;;;;;4.07;2.10;;;2.30;87.10;;;;;;5015764;28;20428;-88
2021/01/07 06:25:27;;;;;;;5.13;1.20;;;2.30;87.00;;;;;;5015632;28;20026;-92
2021/01/07 06:27:53;;;;;;;0.70;0.30;;;2.30;87.00;;;;;;4999364;28;20049;-90
2021/01/07 06:30:20;;;;;;;3.60;0.93;;;2.30;87.00;;;;;;5020229;28;20404;-88
2021/01/07 06:33:01;;;;;;;4.00;0.63;;;2.30;87.00;;;;;;5037854;28;20040;-90
2021/01/07 06:35:34;;;;;;;1.40;1.13;;;2.30;87.00;;;;;;5038309;28;20071;-91
2021/01/07 06:38:00;;;;;;;4.90;1.40;;;2.30;87.00;;;;;;5037561;28;20041;-89
2021/01/07 06:40:26;;;;;;;12.00;3.40;;;2.30;87.00;;;;;;5034110;28;20050;-90
2021/01/07 06:42:53;;;;;;;4.70;0.73;;;2.30;87.00;;;;;;5013070;28;20037;-90
2021/01/07 06:45:24;;;;;;;2.23;1.30;;;2.40;87.10;;;;;;5011285;28;20044;-89
2021/01/07 06:47:54;;;;;;;5.85;1.65;;;2.30;87.00;;;;;;5037336;28;20064;-91
2021/01/07 06:50:21;;;;;;;5.07;1.40;;;2.30;87.10;;;;;;5011529;28;20037;-91
2021/01/07 06:52:48;;;;;;;1.70;1.03;;;2.30;87.20;;;;;;5013571;28;20041;-92
2021/01/07 06:55:19;;;;;;;1.87;1.30;;;2.30;87.20;;;;;;5020673;28;20262;-92
2021/01/07 06:57:46;;;;;;;2.45;1.15;;;2.30;87.20;;;;;;5038346;28;20025;-91
2021/01/07 07:00:14;;;;;;;1.80;0.73;;;2.40;87.20;;;;;;5039010;28;20439;-92
2021/01/07 07:03:05;;;;;;;1.27;0.87;;;2.40;87.10;;;;;;5024252;28;20419;-91
2021/01/07 07:05:56;;;;;;;3.97;1.85;;;2.40;87.80;;;;;;5040528;28;21108;-88
2021/01/07 07:08:35;;;;;;;5.37;2.57;;;2.40;87.00;;;;;;5032660;28;20047;-91
2021/01/07 07:11:07;;;;;;;4.17;0.73;;;2.40;87.00;;;;;;5048818;28;20033;-90
2021/01/07 07:13:39;;;;;;;5.00;1.83;;;2.40;87.00;;;;;;5033869;28;20033;-90
2021/01/07 07:16:06;;;;;;;3.10;1.47;;;2.40;86.90;;;;;;5043144;28;20531;-90
2021/01/07 07:18:35;;;;;;;4.43;2.10;;;2.40;86.90;;;;;;5038906;28;20033;-90
2021/01/07 07:21:17;;;;;;;2.57;1.50;;;2.40;86.90;;;;;;5054597;28;20048;-93
2021/01/07 07:23:44;;;;;;;7.30;1.57;;;2.50;86.90;;;;;;5058570;28;20040;-91
2021/01/07 07:26:12;;;;;;;3.57;1.83;;;2.50;86.90;;;;;;5050264;28;20048;-89
2021/01/07 07:28:42;;;;;;;8.13;2.27;;;2.50;86.90;;;;;;5069606;28;20009;-89
2021/01/07 07:31:09;;;;;;;4.83;2.63;;;2.50;86.80;;;;;;5067487;28;20017;-89
2021/01/07 07:33:39;;;;;;;3.80;1.43;;;2.50;86.80;;;;;;5068100;28;20033;-91
2021/01/07 07:36:07;;;;;;;6.95;1.33;;;2.50;86.80;;;;;;5048850;28;20048;-91
2021/01/07 07:38:37;;;;;;;2.87;1.40;;;2.50;86.70;;;;;;5040769;28;20455;-87
2021/01/07 07:41:08;;;;;;;2.53;1.33;;;2.50;86.70;;;;;;5040412;28;20041;-89
2021/01/07 07:43:35;;;;;;;5.53;1.52;;;2.50;86.70;;;;;;5047634;28;20040;-91
2021/01/07 07:46:02;;;;;;;5.87;1.80;;;2.50;86.80;;;;;;5037645;28;20034;-90
2021/01/07 07:48:29;;;;;;;0.87;0.60;;;2.50;86.90;;;;;;5018619;28;20034;-90
2021/01/07 07:51:06;;;;;;;6.93;1.20;;;2.50;86.80;;;;;;5035337;28;20036;-89
2021/01/07 07:53:32;;;;;;;4.00;1.30;;;2.50;86.80;;;;;;5032435;28;20037;-90
2021/01/07 07:55:59;;;;;;;3.57;2.13;;;2.50;86.80;;;;;;5036322;28;20037;-91
2021/01/07 07:58:25;;;;;;;4.00;2.00;;;2.50;86.90;;;;;;5035054;28;20025;-90
2021/01/07 08:00:53;;;;;;;4.40;1.37;;;2.50;86.90;;;;;;5033057;28;20440;-89
2021/01/07 08:03:29;;;;;;;3.80;1.53;;;2.50;86.90;;;;;;5035260;28;20026;-91
2021/01/07 08:05:58;;;;;;;2.10;0.90;;;2.60;86.90;;;;;;5026540;28;20042;-89
2021/01/07 08:08:29;;;;;;;3.93;1.57;;;2.60;86.90;;;;;;5015856;28;20026;-89
2021/01/07 08:10:56;;;;;;;2.53;0.70;;;2.70;87.10;;;;;;5014116;28;20049;-89
2021/01/07 08:13:23;;;;;;;2.20;0.63;;;3.30;86.30;;;;;;5033892;28;20345;-90
2021/01/07 08:15:54;;;;;;;2.20;0.77;;;4.30;84.10;;;;;;5033891;28;20069;-88
2021/01/07 08:18:21;;;;;;;2.58;0.98;;;5.10;82.00;;;;;;5031782;28;20041;-90
2021/01/07 08:20:49;;;;;;;4.40;1.30;;;5.60;80.50;;;;;;5026268;28;20042;-92
2021/01/07 08:23:16;;;;;;;5.23;1.57;;;5.80;79.80;;;;;;5033417;28;20029;-92
2021/01/07 08:25:49;;;;;;;3.03;1.40;;;6.20;79.50;;;;;;5032947;28;20582;-92
2021/01/07 08:28:16;;;;;;;4.23;1.30;;;6.40;79.40;;;;;;4999665;28;20049;-90
2021/01/07 08:30:45;;;;;;;3.50;0.60;;;6.60;79.30;;;;;;5042656;28;20037;-90
2021/01/07 08:33:12;;;;;;;1.47;0.97;;;6.90;79.20;;;;;;5033129;28;20049;-92
2021/01/07 08:35:38;;;;;;;7.73;1.77;;;7.10;78.90;;;;;;5033198;28;20448;-90
2021/01/07 08:38:05;;;;;;;3.30;1.00;;;7.20;78.80;;;;;;5032688;28;20080;-90
2021/01/07 08:47:56;;;;;;;;;;;;;;;;;;;;;
2021/01/07 08:50:57;;;;;;;1.40;0.77;;;7.00;80.40;;;;;;4905832;29;20047;-92
2021/01/07 08:53:58;;;;;;;1.00;0.73;;;6.90;80.40;;;;;;5029463;28;20459;-90
2021/01/07 08:56:41;;;;;;;;;;;;;;;;;;;;;
2021/01/07 08:59:58;;;;;;;0.87;0.60;;;6.50;81.50;;;;;;5037088;28;20032;-91
2021/01/07 09:02:48;;;;;;;2.40;1.27;;;6.50;82.00;;;;;;5028171;28;20021;-90
2021/01/07 09:05:18;;;;;;;4.40;1.53;;;6.50;81.70;;;;;;5037216;28;20412;-86
2021/01/07 09:07:44;;;;;;;4.20;1.33;;;6.20;81.90;;;;;;5036260;28;20033;-87
2021/01/07 09:10:11;;;;;;;3.80;1.20;;;5.70;83.00;;;;;;5036613;28;20424;-88
2021/01/07 09:12:37;;;;;;;1.53;0.80;;;5.30;84.20;;;;;;5038001;28;20026;-90
2021/01/07 09:15:11;;;;;;;5.40;1.10;;;4.90;85.20;;;;;;5020518;28;20327;-87
2021/01/07 09:17:48;;;;;;;10.40;2.00;;;4.60;86.10;;;;;;5039300;28;20045;-91
2021/01/07 09:20:30;;;;;;;3.80;0.70;;;4.40;86.70;;;;;;5044201;28;20029;-90
2021/01/07 09:23:03;;;;;;;2.83;2.23;;;4.20;87.00;;;;;;5036864;28;20036;-89
2021/01/07 09:25:29;;;;;;;1.57;0.60;;;4.10;87.30;;;;;;5060884;28;20033;-90
2021/01/07 09:27:56;;;;;;;0.80;0.43;;;4.00;87.30;;;;;;5059700;28;20335;-89
2021/01/07 09:30:23;;;;;;;3.10;1.10;;;3.90;87.30;;;;;;5022343;28;20038;-92
2021/01/07 09:32:50;;;;;;;1.57;0.53;;;3.90;87.10;;;;;;5023689;28;20041;-89
2021/01/07 09:35:16;;;;;;;4.83;1.17;;;3.90;87.10;;;;;;5040356;28;20018;-93
2021/01/07 09:37:43;;;;;;;2.33;1.80;;;3.80;87.00;;;;;;5009496;28;20045;-91
2021/01/07 09:40:09;;;;;;;4.83;1.37;;;3.80;87.20;;;;;;5024096;28;20041;-91
2021/01/07 09:42:36;;;;;;;2.27;0.80;;;3.70;87.10;;;;;;5058901;28;20032;-89
2021/01/07 09:45:06;;;;;;;3.33;1.77;;;3.80;87.00;;;;;;5040188;28;20025;-90
2021/01/07 09:47:34;;;;;;;1.35;0.60;;;3.80;86.90;;;;;;5003356;28;20038;-91
2021/01/07 09:50:01;;;;;;;1.10;0.83;;;3.80;86.70;;;;;;4999100;28;20030;-88
2021/01/07 09:52:27;;;;;;;4.13;0.80;;;3.90;86.60;;;;;;5008349;28;20021;-90
2021/01/07 09:54:53;;;;;;;0.97;0.77;;;3.90;86.40;;;;;;5037074;28;20022;-91
2021/01/07 09:57:20;;;;;;;9.83;1.33;;;3.90;86.20;;;;;;5035728;28;20041;-91
2021/01/07 09:59:46;;;;;;;1.53;1.37;;;3.90;86.20;;;;;;5002442;28;20065;-88
2021/01/07 10:02:12;;;;;;;1.70;0.97;;;3.90;86.10;;;;;;5018206;28;20037;-90
2021/01/07 10:04:43;;;;;;;4.43;0.87;;;3.90;86.00;;;;;;5020960;28;20044;-91
2021/01/07 10:07:11;;;;;;;3.05;1.20;;;4.00;86.10;;;;;;5034813;28;20041;-90
2021/01/07 10:09:37;;;;;;;3.80;0.93;;;4.00;85.90;;;;;;5018931;28;20328;-87
2021/01/07 10:12:04;;;;;;;1.67;0.77;;;4.00;85.80;;;;;;5018913;28;20421;-89
2021/01/07 10:14:31;;;;;;;0.83;0.63;;;4.10;85.70;;;;;;5018563;28;20044;-89
2021/01/07 10:17:02;;;;;;;2.53;1.17;;;4.10;85.70;;;;;;5018317;28;20044;-88
2021/01/07 10:19:30;;;;;;;2.47;1.77;;;4.10;85.60;;;;;;5003554;28;20048;-89
2021/01/07 10:22:04;;;;;;;9.97;2.57;;;4.10;85.50;;;;;;5007619;28;20185;-88
2021/01/07 10:24:31;;;;;;;2.77;0.77;;;4.20;85.40;;;;;;5001505;28;20037;-89
2021/01/07 10:27:03;;;;;;;2.40;1.03;;;4.20;85.30;;;;;;5014296;28;20030;-87
2021/01/07 10:29:38;;;;;;;2.17;0.77;;;4.20;85.30;;;;;;4998273;28;20030;-89
2021/01/07 10:32:13;;;;;;;4.37;1.80;;;4.30;85.20;;;;;;4981513;28;20026;-88
2021/01/07 10:34:44;;;;;;;13.53;2.20;;;4.30;85.20;;;;;;4983597;28;20022;-87
2021/01/07 10:37:10;;;;;;;;;;;4.30;85.10;;;;;;4998592;28;20045;-87
2021/01/07 10:39:38;;;;;;;1.87;1.00;;;4.30;85.10;;;;;;5034526;28;19909;-87
2021/01/07 10:42:06;;;;;;;1.30;0.60;;;4.40;85.00;;;;;;5001324;28;20044;-89
2021/01/07 10:44:36;;;;;;;2.17;1.33;;;4.30;84.90;;;;;;5018724;28;20032;-89
2021/01/07 10:47:03;;;;;;;2.53;0.83;;;4.40;85.00;;;;;;5017938;28;20029;-91
2021/01/07 10:49:32;;;;;;;4.30;1.80;;;4.40;85.00;;;;;;5006414;28;20037;-90
2021/01/07 10:52:07;;;;;;;6.17;2.27;;;4.40;85.00;;;;;;5035624;28;20048;-90
2021/01/07 10:55:00;;;;;;;11.03;1.80;;;4.50;84.90;;;;;;5017261;28;20033;-89
2021/01/07 10:57:49;;;;;;;2.73;0.80;;;4.50;84.80;;;;;;4987287;28;20436;-89
2021/01/07 11:00:34;;;;;;;7.00;1.20;;;4.50;84.70;;;;;;5002671;28;20052;-90
2021/01/07 11:03:31;;;;;;;2.57;0.70;;;4.60;84.70;;;;;;5002318;28;20029;-89
2021/01/07 11:06:02;;;;;;;3.33;1.87;;;4.60;84.70;;;;;;5017800;28;20042;-91
2021/01/07 11:08:34;;;;;;;4.72;2.75;;;4.60;84.70;;;;;;5016783;28;20033;-91
2021/01/07 11:11:07;;;;;;;9.00;2.00;;;4.60;84.60;;;;;;5035425;28;20252;-91
2021/01/07 11:14:20;;;;;;;9.37;3.17;;;4.60;84.60;;;;;;5003260;28;20041;-90
2021/01/07 11:16:47;;;;;;;2.77;1.63;;;4.60;84.70;;;;;;5016937;28;20196;-91
2021/01/07 11:19:15;;;;;;;6.83;2.17;;;4.60;84.70;;;;;;5017181;28;20041;-91
2021/01/07 11:21:49;;;;;;;4.33;1.17;;;4.60;84.60;;;;;;5017513;28;20375;-91
2021/01/07 11:24:19;;;;;;;9.90;1.33;;;4.70;84.60;;;;;;5017663;28;20029;-91
2021/01/07 11:26:46;;;;;;;4.23;0.87;;;4.70;84.60;;;;;;5017270;28;20340;-91
2021/01/07 11:29:13;;;;;;;3.67;1.23;;;4.70;84.40;;;;;;5016812;28;20041;-92
2021/01/07 11:31:41;;;;;;;15.60;1.57;;;4.80;84.40;;;;;;5007560;28;20040;-91
2021/01/07 11:34:07;;;;;;;3.20;1.77;;;4.80;84.30;;;;;;5000187;28;20049;-91
2021/01/07 11:36:47;;;;;;;3.33;2.83;;;4.90;84.20;;;;;;4994763;28;20050;-90
2021/01/07 11:39:18;;;;;;;1.83;1.20;;;5.00;84.10;;;;;;4974628;28;20046;-90
2021/01/07 11:42:16;;;;;;;4.60;1.20;;;5.00;84.00;;;;;;4974395;28;20118;-91
2021/01/07 11:45:20;;;;;;;1.47;1.17;;;5.10;84.10;;;;;;4974747;28;20050;-89
2021/01/07 11:47:56;;;;;;;2.97;1.13;;;5.20;83.90;;;;;;4915011;28;20052;-89
2021/01/07 11:50:23;;;;;;;3.67;1.67;;;5.10;83.70;;;;;;4967004;28;20442;-91
2021/01/07 11:52:54;;;;;;;4.37;1.30;;;5.20;83.70;;;;;;4973788;28;20349;-90
2021/01/07 11:55:21;;;;;;;1.33;0.82;;;5.20;83.70;;;;;;4958557;28;20038;-89
2021/01/07 11:57:51;;;;;;;6.43;1.43;;;5.20;83.70;;;;;;4958333;28;20042;-91
2021/01/07 12:00:33;;;;;;;4.97;1.43;;;5.20;83.70;;;;;;4972443;28;20042;-90
2021/01/07 12:03:32;;;;;;;3.77;1.67;;;5.20;83.90;;;;;;4975129;28;20104;-90
2021/01/07 12:06:10;;;;;;;3.53;0.87;;;5.20;83.90;;;;;;4969180;28;20050;-90
2021/01/07 12:09:17;;;;;;;0.87;0.70;;;5.20;83.90;;;;;;4958322;28;20086;-90
2021/01/07 12:11:56;;;;;;;2.30;0.53;;;5.30;83.90;;;;;;4974647;28;20042;-89
2021/01/07 12:14:35;;;;;;;9.77;2.20;;;5.30;83.90;;;;;;4958065;28;20049;-90
2021/01/07 12:17:16;;;;;;;;;;;;;;;;;;;;;
2021/01/07 12:19:49;;;;;;;3.30;1.23;;;5.30;84.00;;;;;;4993666;28;20038;-90
2021/01/07 12:22:21;;;;;;;8.07;1.97;;;5.30;83.90;;;;;;4981601;28;20060;-90
2021/01/07 12:24:48;;;;;;;2.73;0.93;;;5.40;83.80;;;;;;4980393;28;20434;-88
2021/01/07 12:27:14;;;;;;;3.47;1.13;;;5.40;83.60;;;;;;5006266;28;20038;-88
2021/01/07 12:29:41;;;;;;;4.23;1.53;;;5.50;83.50;;;;;;4977754;28;20050;-87
2021/01/07 12:32:43;;;;;;;1.60;0.77;;;5.60;83.30;;;;;;4974619;28;20034;-90
2021/01/07 12:36:11;;;;;;;1.27;0.50;;;5.70;83.10;;;;;;4973533;28;20045;-90
2021/01/07 12:39:15;;;;;;;;;;;;;;;;;;;;;
2021/01/07 12:41:51;;;;;;;1.50;0.90;;;5.90;82.60;;;;;;4969147;28;20031;-89
2021/01/07 12:44:22;;;;;;;2.03;1.20;;;6.00;82.40;;;;;;4979647;28;20034;-90
2021/01/07 12:47:14;;;;;;;1.35;0.80;;;6.00;82.20;;;;;;4993018;28;20037;-90
2021/01/07 12:49:45;;;;;;;2.23;0.70;;;6.10;82.20;;;;;;5018015;28;20048;-89
2021/01/07 12:52:12;;;;;;;1.80;0.53;;;6.10;82.20;;;;;;5001155;28;20239;-90
2021/01/07 12:54:38;;;;;;;5.30;1.10;;;6.10;83.00;;;;;;4979051;28;20030;-90
2021/01/07 12:57:18;;;;;;;4.40;2.17;;;6.10;82.30;;;;;;5024224;28;20059;-90
2021/01/07 13:00:05;;;;;;;3.47;0.70;;;6.10;82.30;;;;;;5031471;28;20215;-89
2021/01/07 13:03:26;;;;;;;2.07;0.77;;;6.20;82.30;;;;;;4970713;28;20048;-91
2021/01/07 13:06:02;;;;;;;4.00;0.43;;;6.20;82.20;;;;;;4990284;28;20038;-89
2021/01/07 13:08:41;;;;;;;3.00;0.93;;;6.30;82.20;;;;;;5007257;28;20049;-90
2021/01/07 13:11:07;;;;;;;4.83;1.17;;;6.30;82.00;;;;;;5014551;28;20727;-90
2021/01/07 13:14:07;;;;;;;2.77;0.67;;;6.30;82.20;;;;;;4997781;28;20271;-91
2021/01/07 13:16:38;;;;;;;7.47;1.50;;;6.20;82.20;;;;;;5018488;28;20447;-90
2021/01/07 13:19:08;;;;;;;2.87;0.57;;;6.20;82.30;;;;;;5034192;28;20045;-91
2021/01/07 13:21:37;;;;;;;1.70;0.57;;;6.20;82.40;;;;;;5016742;28;20053;-91
2021/01/07 13:24:06;;;;;;;0.57;0.50;;;6.20;82.40;;;;;;5005973;28;20042;-90
2021/01/07 13:26:35;;;;;;;0.97;0.67;;;6.00;82.50;;;;;;4994004;28;20045;-90
2021/01/07 13:29:02;;;;;;;1.60;0.57;;;5.90;82.90;;;;;;4994383;28;20053;-91